createdAt,value
2019-06-15T00:01:07.622Z,81.64
2019-06-15T00:03:39.402Z,81.63
2019-06-15T00:06:11.245Z,81.45
2019-06-15T00:08:43.705Z,81.79
2019-06-15T00:11:15.471Z,81.58
2019-06-15T00:13:47.266Z,80.76
2019-06-15T00:16:19.025Z,81.19
2019-06-15T00:18:50.804Z,81.65
2019-06-15T00:21:22.585Z,81.48
2019-06-15T00:23:54.360Z,81.35
2019-06-15T00:26:26.127Z,81.51
2019-06-15T00:28:57.912Z,81.96
2019-06-15T00:31:29.688Z,81.62
2019-06-15T00:34:02.737Z,81.57
2019-06-15T00:36:34.521Z,82.03
2019-06-15T00:39:09.013Z,82.63
2019-06-15T00:41:40.867Z,82.46
2019-06-15T00:44:12.642Z,82.89
2019-06-15T00:46:44.427Z,82.43
2019-06-15T00:49:16.206Z,82.55
2019-06-15T00:51:48.045Z,82.81
2019-06-15T00:54:19.830Z,82.61
2019-06-15T00:56:51.914Z,81.99
2019-06-15T00:59:23.684Z,82.79
2019-06-15T01:01:55.476Z,82.81
2019-06-15T01:04:27.374Z,83.06
2019-06-15T01:06:59.122Z,82.81
2019-06-15T01:09:30.912Z,82.55
2019-06-15T01:12:02.699Z,81.99
2019-06-15T01:14:34.471Z,81.63
2019-06-15T01:17:06.251Z,81.51
2019-06-15T01:19:38.025Z,81.77
2019-06-15T01:22:09.818Z,81.47
2019-06-15T01:24:41.591Z,81.28
2019-06-15T01:27:13.363Z,81.12
2019-06-15T01:29:45.138Z,81.19
2019-06-15T01:32:16.921Z,81.47
2019-06-15T01:34:48.698Z,81.92
2019-06-15T01:37:20.471Z,82.21
2019-06-15T01:39:52.252Z,82.21
2019-06-15T01:42:24.028Z,82.75
2019-06-15T01:44:55.813Z,83.33
2019-06-15T01:47:27.592Z,83.20
2019-06-15T01:49:59.400Z,83.01
2019-06-15T01:52:31.166Z,82.97
2019-06-15T01:55:03.125Z,83.33
2019-06-15T01:57:34.980Z,83.63
2019-06-15T02:00:09.082Z,83.88
2019-06-15T02:02:40.921Z,83.81
2019-06-15T02:05:12.761Z,84.16
2019-06-15T02:07:44.543Z,84.03
2019-06-15T02:10:18.398Z,84.07
2019-06-15T02:12:50.645Z,84.32
2019-06-15T02:15:22.488Z,84.02
2019-06-15T02:17:54.276Z,84.29
2019-06-15T02:20:26.059Z,84.14
2019-06-15T02:22:58.151Z,83.83
2019-06-15T02:25:36.259Z,83.87
2019-06-15T02:28:05.938Z,84.87
2019-06-15T02:30:37.781Z,84.54
2019-06-15T02:33:09.573Z,84.35
2019-06-15T02:35:42.141Z,84.13
2019-06-15T02:38:13.937Z,84.48
2019-06-15T02:40:46.682Z,84.63
2019-06-15T02:43:18.529Z,84.60
2019-06-15T02:45:50.304Z,84.58
2019-06-15T02:48:22.103Z,84.82
2019-06-15T02:50:54.248Z,85.19
2019-06-15T02:53:26.102Z,85.34
2019-06-15T02:55:57.880Z,84.87
2019-06-15T02:58:29.674Z,84.84
2019-06-15T03:01:08.842Z,85.22
2019-06-15T03:03:40.689Z,85.62
2019-06-15T03:06:12.456Z,85.67
2019-06-15T03:08:44.378Z,85.80
2019-06-15T03:11:16.242Z,86.03
2019-06-15T03:13:48.570Z,86.13
2019-06-15T03:16:21.425Z,86.35
2019-06-15T03:18:53.208Z,86.39
2019-06-15T03:21:24.984Z,86.05
2019-06-15T03:23:56.766Z,85.61
2019-06-15T03:26:28.536Z,85.45
2019-06-15T03:29:00.325Z,85.22
2019-06-15T03:31:32.181Z,85.71
2019-06-15T03:34:04.028Z,85.85
2019-06-15T03:36:35.806Z,85.54
2019-06-15T03:39:08.234Z,86.74
2019-06-15T03:41:40.009Z,85.86
2019-06-15T03:44:11.792Z,86.25
2019-06-15T03:46:43.609Z,86.59
2019-06-15T03:49:15.375Z,86.56
2019-06-15T03:51:47.241Z,86.39
2019-06-15T03:54:19.028Z,86.58
2019-06-15T03:56:50.798Z,86.59
2019-06-15T03:59:22.581Z,86.70
2019-06-15T04:01:54.378Z,86.52
2019-06-15T04:04:26.162Z,87.00
2019-06-15T04:06:57.938Z,87.91
2019-06-15T04:09:29.798Z,88.55
2019-06-15T04:12:01.585Z,88.40
2019-06-15T04:14:33.362Z,88.88
2019-06-15T04:17:05.134Z,88.75
2019-06-15T04:19:36.985Z,88.40
2019-06-15T04:22:11.354Z,88.23
2019-06-15T04:24:43.152Z,88.16
2019-06-15T04:27:14.927Z,87.90
2019-06-15T04:29:46.706Z,87.65
2019-06-15T04:32:18.484Z,87.44
2019-06-15T04:34:51.971Z,87.14
2019-06-15T04:37:23.740Z,86.92
2019-06-15T04:39:55.532Z,86.92
2019-06-15T04:42:27.327Z,87.09
2019-06-15T04:44:59.115Z,86.80
2019-06-15T04:47:30.957Z,86.79
2019-06-15T04:50:02.820Z,86.68
2019-06-15T04:52:34.922Z,85.76
2019-06-15T04:55:08.316Z,84.85
2019-06-15T04:57:40.095Z,82.95
2019-06-15T05:00:12.332Z,80.93
2019-06-15T05:02:44.102Z,80.64
2019-06-15T05:05:15.882Z,79.85
2019-06-15T05:07:47.671Z,78.76
2019-06-15T05:10:19.729Z,77.92
2019-06-15T05:12:51.499Z,77.24
2019-06-15T05:15:23.289Z,76.59
2019-06-15T05:17:55.065Z,76.23
2019-06-15T05:20:26.865Z,76.54
2019-06-15T05:22:58.659Z,76.83
2019-06-15T05:25:30.409Z,76.95
2019-06-15T05:28:02.248Z,77.31
2019-06-15T05:30:34.039Z,77.44
2019-06-15T05:33:05.949Z,77.23
2019-06-15T05:35:37.736Z,77.73
2019-06-15T05:38:11.122Z,78.04
2019-06-15T05:40:42.912Z,78.20
2019-06-15T05:43:14.686Z,78.62
2019-06-15T05:45:46.473Z,79.35
2019-06-15T05:48:18.386Z,79.00
2019-06-15T05:50:50.203Z,79.36
2019-06-15T05:53:22.038Z,79.60
2019-06-15T05:55:53.911Z,79.35
2019-06-15T05:58:25.696Z,79.04
2019-06-15T06:00:57.479Z,78.84
2019-06-15T06:03:29.255Z,78.81
2019-06-15T06:06:01.122Z,78.54
2019-06-15T06:08:32.917Z,77.98
2019-06-15T06:11:04.774Z,77.51
2019-06-15T06:13:36.547Z,77.46
2019-06-15T06:16:08.333Z,77.20
2019-06-15T06:18:40.110Z,76.96
2019-06-15T06:21:11.898Z,76.95
2019-06-15T06:23:43.668Z,77.27
2019-06-15T06:26:15.474Z,76.95
2019-06-15T06:28:56.812Z,77.38
2019-06-15T06:31:20.732Z,77.01
2019-06-15T06:33:52.510Z,77.34
2019-06-15T06:36:24.287Z,77.19
2019-06-15T06:38:56.063Z,77.32
2019-06-15T06:41:28.149Z,77.22
2019-06-15T06:43:59.936Z,77.69
2019-06-15T06:46:31.718Z,77.55
2019-06-15T06:49:03.504Z,77.86
2019-06-15T06:51:35.284Z,77.97
2019-06-15T06:54:07.057Z,78.06
2019-06-15T06:56:39.882Z,78.11
2019-06-15T06:59:11.723Z,78.19
2019-06-15T07:01:43.515Z,78.38
2019-06-15T07:04:15.275Z,77.97
2019-06-15T07:06:47.062Z,77.17
2019-06-15T07:09:19.098Z,76.61
2019-06-15T07:11:50.894Z,75.28
2019-06-15T07:14:22.740Z,74.85
2019-06-15T07:16:54.522Z,75.20
2019-06-15T07:19:26.301Z,74.14
2019-06-15T07:21:58.088Z,73.10
2019-06-15T07:24:29.855Z,72.92
2019-06-15T07:27:01.638Z,72.00
2019-06-15T07:29:33.399Z,71.79
2019-06-15T07:32:05.251Z,71.00
2019-06-15T07:34:37.060Z,69.69
2019-06-15T07:37:08.913Z,69.42
2019-06-15T07:39:40.848Z,69.41
2019-06-15T07:42:12.603Z,69.81
2019-06-15T07:44:44.379Z,69.31
2019-06-15T07:47:16.194Z,68.77
2019-06-15T07:49:47.958Z,69.92
2019-06-15T07:52:19.733Z,69.24
2019-06-15T07:54:52.268Z,68.86
2019-06-15T07:57:24.048Z,68.88
2019-06-15T07:59:56.785Z,68.29
2019-06-15T08:02:28.561Z,68.07
2019-06-15T08:05:00.325Z,68.58
2019-06-15T08:07:32.098Z,68.97
2019-06-15T08:10:07.716Z,69.20
2019-06-15T08:12:39.490Z,68.78
2019-06-15T08:15:12.134Z,68.88
2019-06-15T08:17:45.599Z,68.83
2019-06-15T08:20:23.237Z,68.74
2019-06-15T08:22:55.019Z,69.51
2019-06-15T08:25:26.789Z,69.55
2019-06-15T08:27:58.662Z,70.06
2019-06-15T08:30:35.119Z,68.78
2019-06-15T08:33:06.896Z,68.56
2019-06-15T08:35:38.658Z,67.35
2019-06-15T08:38:11.570Z,67.36
2019-06-15T08:40:43.489Z,66.48
2019-06-15T08:43:15.260Z,66.60
2019-06-15T08:45:47.027Z,66.63
2019-06-15T08:48:18.806Z,66.34
2019-06-15T08:50:50.566Z,65.54
2019-06-15T08:53:22.342Z,66.24
2019-06-15T08:55:54.116Z,66.23
2019-06-15T08:58:25.895Z,66.02
2019-06-15T09:00:57.738Z,65.83
2019-06-15T09:03:29.512Z,65.74
2019-06-15T09:06:01.284Z,65.38
2019-06-15T09:08:33.112Z,64.01
2019-06-15T09:11:04.887Z,64.04
2019-06-15T09:13:36.671Z,65.00
2019-06-15T09:16:08.428Z,65.24
2019-06-15T09:18:40.277Z,65.19
2019-06-15T09:21:12.047Z,64.47
2019-06-15T09:23:43.821Z,63.86
2019-06-15T09:26:15.591Z,64.76
2019-06-15T09:28:47.371Z,65.05
2019-06-15T09:31:19.133Z,64.91
2019-06-15T09:33:50.905Z,63.70
2019-06-15T09:36:22.675Z,64.95
2019-06-15T09:38:54.452Z,65.11
2019-06-15T09:41:26.216Z,65.30
2019-06-15T09:43:57.991Z,64.67
2019-06-15T09:46:29.775Z,65.32
2019-06-15T09:49:02.528Z,64.66
2019-06-15T09:51:34.293Z,64.93
2019-06-15T09:54:06.141Z,64.92
2019-06-15T09:56:37.907Z,63.34
2019-06-15T09:59:09.681Z,63.79
2019-06-15T10:01:42.513Z,63.68
2019-06-15T10:04:14.309Z,63.62
2019-06-15T10:06:46.057Z,63.91
2019-06-15T10:09:17.843Z,63.27
2019-06-15T10:11:50.241Z,62.73
2019-06-15T10:14:22.042Z,62.60
2019-06-15T10:16:53.810Z,61.70
2019-06-15T10:19:25.608Z,61.61
2019-06-15T10:21:57.390Z,61.83
2019-06-15T10:24:29.205Z,62.86
2019-06-15T10:27:00.982Z,62.39
2019-06-15T10:29:41.624Z,62.89
2019-06-15T10:32:06.230Z,63.38
2019-06-15T10:34:38.033Z,62.30
2019-06-15T10:37:11.014Z,62.65
2019-06-15T10:39:43.265Z,62.89
2019-06-15T10:42:15.032Z,61.58
2019-06-15T10:44:47.091Z,62.59
2019-06-15T10:47:18.861Z,62.65
2019-06-15T10:49:50.639Z,61.71
2019-06-15T10:52:22.412Z,61.71
2019-06-15T10:54:54.191Z,61.71
2019-06-15T10:57:25.964Z,62.63
2019-06-15T10:59:57.950Z,61.21
2019-06-15T11:02:29.888Z,60.81
2019-06-15T11:05:01.736Z,61.60
2019-06-15T11:07:34.642Z,61.96
2019-06-15T11:10:09.966Z,62.35
2019-06-15T11:12:46.323Z,61.90
2019-06-15T11:15:16.261Z,61.70
2019-06-15T11:17:48.226Z,61.12
2019-06-15T11:20:20.072Z,61.33
2019-06-15T11:22:51.832Z,62.48
2019-06-15T11:25:23.608Z,61.71
2019-06-15T11:27:55.375Z,61.55
2019-06-15T11:30:27.159Z,61.37
2019-06-15T11:32:58.936Z,61.80
2019-06-15T11:35:30.721Z,61.51
2019-06-15T11:38:03.537Z,61.44
2019-06-15T11:40:35.318Z,61.66
2019-06-15T11:43:07.077Z,60.51
2019-06-15T11:45:38.859Z,60.71
2019-06-15T11:48:10.917Z,62.02
2019-06-15T11:50:42.731Z,60.25
2019-06-15T11:53:14.496Z,61.11
2019-06-15T11:55:46.272Z,61.74
2019-06-15T11:58:18.037Z,60.84
2019-06-15T12:00:49.891Z,61.77
2019-06-15T12:03:21.665Z,61.18
2019-06-15T12:05:53.446Z,61.37
2019-06-15T12:08:25.238Z,60.49
2019-06-15T12:10:56.983Z,60.10
2019-06-15T12:13:28.752Z,61.17
2019-06-15T12:16:00.825Z,62.15
2019-06-15T12:18:32.586Z,62.15
2019-06-15T12:21:04.382Z,62.63
2019-06-15T12:23:36.147Z,63.24
2019-06-15T12:26:07.926Z,62.33
2019-06-15T12:28:39.765Z,61.24
2019-06-15T12:31:13.020Z,61.01
2019-06-15T12:33:44.795Z,62.35
2019-06-15T12:36:19.531Z,61.90
2019-06-15T12:38:50.121Z,60.62
2019-06-15T12:41:21.911Z,60.43
2019-06-15T12:43:53.668Z,59.28
2019-06-15T12:46:26.520Z,59.75
2019-06-15T12:48:58.289Z,59.72
2019-06-15T12:51:30.095Z,60.46
2019-06-15T12:54:01.984Z,61.64
2019-06-15T12:56:33.765Z,60.61
2019-06-15T12:59:05.603Z,60.43
2019-06-15T13:01:37.438Z,61.02
2019-06-15T13:04:09.199Z,60.76
2019-06-15T13:06:40.973Z,60.27
2019-06-15T13:09:12.743Z,61.40
2019-06-15T13:11:44.514Z,61.18
2019-06-15T13:14:16.287Z,61.75
2019-06-15T13:16:48.247Z,62.13
2019-06-15T13:19:20.105Z,61.57
2019-06-15T13:21:51.878Z,62.06
2019-06-15T13:24:23.640Z,62.01
2019-06-15T13:26:55.435Z,62.55
2019-06-15T13:29:27.195Z,62.33
2019-06-15T13:31:58.975Z,61.70
2019-06-15T13:34:30.740Z,60.67
2019-06-15T13:37:02.515Z,60.40
2019-06-15T13:39:34.295Z,60.25
2019-06-15T13:42:06.108Z,59.73
2019-06-15T13:44:37.842Z,59.00
2019-06-15T13:47:09.960Z,57.08
2019-06-15T13:49:41.723Z,57.91
2019-06-15T13:52:13.500Z,57.94
2019-06-15T13:54:45.269Z,56.60
2019-06-15T13:57:17.123Z,57.31
2019-06-15T13:59:48.897Z,57.28
2019-06-15T14:02:20.667Z,57.10
2019-06-15T14:04:53.575Z,56.55
2019-06-15T14:07:25.361Z,56.04
2019-06-15T14:09:57.130Z,56.59
2019-06-15T14:12:28.914Z,55.85
2019-06-15T14:15:01.747Z,56.41
2019-06-15T14:17:33.612Z,57.45
2019-06-15T14:20:07.023Z,57.44
2019-06-15T14:22:38.796Z,56.13
2019-06-15T14:25:11.552Z,55.86
2019-06-15T14:27:43.333Z,55.23
2019-06-15T14:30:15.539Z,54.91
2019-06-15T14:32:47.287Z,55.54
2019-06-15T14:35:19.125Z,55.98
2019-06-15T14:37:50.905Z,54.27
2019-06-15T14:40:22.668Z,54.57
2019-06-15T14:42:54.447Z,54.68
2019-06-15T14:45:26.479Z,55.29
2019-06-15T14:47:58.257Z,56.02
2019-06-15T14:50:30.024Z,56.34
2019-06-15T14:53:01.819Z,55.03
2019-06-15T14:55:36.658Z,53.80
2019-06-15T14:58:08.591Z,54.95
2019-06-15T15:00:40.352Z,55.08
2019-06-15T15:03:12.129Z,54.91
2019-06-15T15:05:43.911Z,55.79
2019-06-15T15:08:15.815Z,55.60
2019-06-15T15:10:47.578Z,54.84
2019-06-15T15:13:19.355Z,55.57
2019-06-15T15:15:53.126Z,55.74
2019-06-15T15:18:27.059Z,55.36
2019-06-15T15:20:58.616Z,55.56
2019-06-15T15:23:30.389Z,54.69
2019-06-15T15:26:02.174Z,54.75
2019-06-15T15:28:36.355Z,55.36
2019-06-15T15:31:07.410Z,55.39
2019-06-15T15:33:40.834Z,55.08
2019-06-15T15:36:12.611Z,56.26
2019-06-15T15:38:46.648Z,53.94
2019-06-15T15:41:17.856Z,54.19
2019-06-15T15:43:49.626Z,55.11
2019-06-15T15:46:21.405Z,55.97
2019-06-15T15:48:53.168Z,55.67
2019-06-15T15:51:26.174Z,55.57
2019-06-15T15:53:58.085Z,56.61
2019-06-15T15:56:29.851Z,56.67
2019-06-15T15:59:01.922Z,55.81
2019-06-15T16:01:33.961Z,56.37
2019-06-15T16:04:06.708Z,56.79
2019-06-15T16:06:39.445Z,57.55
2019-06-15T16:09:11.230Z,57.75
2019-06-15T16:11:43.016Z,58.77
2019-06-15T16:14:16.434Z,58.19
2019-06-15T16:16:48.468Z,58.19
2019-06-15T16:19:20.252Z,58.24
2019-06-15T16:21:52.018Z,58.63
2019-06-15T16:24:23.792Z,58.92
2019-06-15T16:26:56.643Z,59.64
2019-06-15T16:29:28.530Z,59.24
2019-06-15T16:32:00.305Z,59.52
2019-06-15T16:34:32.078Z,59.50
2019-06-15T16:37:06.409Z,59.53
2019-06-15T16:39:37.359Z,59.56
2019-06-15T16:42:09.121Z,59.41
2019-06-15T16:44:40.902Z,59.62
2019-06-15T16:47:12.662Z,59.98
2019-06-15T16:49:46.397Z,60.20
2019-06-15T16:52:18.040Z,60.04
2019-06-15T16:54:49.882Z,60.41
2019-06-15T16:57:21.661Z,60.68
2019-06-15T16:59:55.978Z,60.60
2019-06-15T17:02:26.873Z,60.63
2019-06-15T17:04:58.648Z,60.37
2019-06-15T17:07:30.671Z,60.18
2019-06-15T17:10:02.473Z,60.50
2019-06-15T17:12:37.023Z,60.50
2019-06-15T17:15:08.085Z,59.48
2019-06-15T17:17:40.018Z,59.93
2019-06-15T17:20:11.978Z,59.80
2019-06-15T17:22:43.740Z,60.22
2019-06-15T17:25:16.608Z,59.88
2019-06-15T17:27:48.651Z,59.76
2019-06-15T17:30:20.583Z,59.75
2019-06-15T17:32:52.333Z,58.79
2019-06-15T17:35:24.108Z,58.26
2019-06-15T17:37:56.435Z,58.02
2019-06-15T17:40:28.250Z,58.16
2019-06-15T17:43:00.094Z,58.18
2019-06-15T17:45:31.861Z,58.69
2019-06-15T17:48:06.333Z,58.84
2019-06-15T17:50:44.021Z,58.30
2019-06-15T17:53:16.980Z,58.23
2019-06-15T17:55:48.963Z,57.75
2019-06-15T17:58:20.724Z,58.16
2019-06-15T18:00:52.501Z,58.37
2019-06-15T18:03:26.076Z,58.83
2019-06-15T18:05:58.247Z,58.83
2019-06-15T18:08:30.194Z,58.78
2019-06-15T18:11:01.973Z,58.43
2019-06-15T18:13:33.786Z,58.39
2019-06-15T18:16:06.702Z,58.43
2019-06-15T18:18:38.634Z,58.59
2019-06-15T18:21:11.226Z,58.64
2019-06-15T18:23:43.033Z,58.93
2019-06-15T18:26:16.219Z,58.95
2019-06-15T18:28:48.255Z,58.92
2019-06-15T18:31:20.033Z,59.37
2019-06-15T18:34:06.457Z,59.85
2019-06-15T18:36:26.698Z,59.54
2019-06-15T18:38:58.594Z,60.19
2019-06-15T18:41:31.351Z,60.36
2019-06-15T18:44:03.123Z,60.83
2019-06-15T18:46:36.747Z,61.78
2019-06-15T18:49:08.563Z,62.78
2019-06-15T18:51:40.324Z,63.57
2019-06-15T18:54:12.088Z,63.55
2019-06-15T18:56:45.990Z,63.06
2019-06-15T18:59:17.330Z,63.25
2019-06-15T19:01:49.104Z,63.46
2019-06-15T19:04:27.220Z,63.50
2019-06-15T19:06:56.144Z,63.60
2019-06-15T19:09:28.793Z,63.87
2019-06-15T19:12:00.562Z,64.10
2019-06-15T19:14:32.341Z,64.54
2019-06-15T19:17:06.075Z,64.92
2019-06-15T19:19:38.550Z,65.20
2019-06-15T19:22:10.953Z,65.43
2019-06-15T19:24:42.717Z,65.97
2019-06-15T19:27:16.117Z,65.96
2019-06-15T19:29:48.040Z,65.88
2019-06-15T19:32:19.821Z,66.33
2019-06-15T19:34:51.663Z,67.51
2019-06-15T19:37:25.955Z,68.21
2019-06-15T19:39:56.900Z,69.44
2019-06-15T19:42:28.667Z,70.76
2019-06-15T19:45:00.439Z,71.31
2019-06-15T19:47:32.224Z,72.59
2019-06-15T19:50:06.566Z,72.52
2019-06-15T19:52:38.431Z,72.48
2019-06-15T19:55:11.377Z,72.85
2019-06-15T19:57:43.162Z,72.72
2019-06-15T20:00:17.084Z,73.35
2019-06-15T20:02:49.156Z,73.34
2019-06-15T20:05:21.891Z,73.46
2019-06-15T20:07:53.674Z,73.87
2019-06-15T20:10:26.599Z,74.18
2019-06-15T20:12:58.545Z,74.50
2019-06-15T20:15:30.316Z,74.51
2019-06-15T20:18:02.110Z,74.27
2019-06-15T20:20:36.332Z,74.02
2019-06-15T20:23:07.566Z,74.16
2019-06-15T20:25:39.418Z,74.81
2019-06-15T20:28:11.226Z,75.51
2019-06-15T20:30:43.011Z,75.59
2019-06-15T20:33:16.665Z,75.71
2019-06-15T20:35:48.281Z,75.96
2019-06-15T20:38:20.059Z,76.32
2019-06-15T20:40:51.833Z,76.85
2019-06-15T20:43:23.778Z,77.32
2019-06-15T20:45:56.203Z,77.85
2019-06-15T20:48:28.262Z,78.27
2019-06-15T20:51:00.043Z,78.62
2019-06-15T20:53:32.002Z,79.04
2019-06-15T20:56:06.447Z,78.72
2019-06-15T20:58:37.560Z,78.61
2019-06-15T21:01:09.388Z,78.91
2019-06-15T21:03:43.166Z,78.76
2019-06-15T21:06:16.871Z,78.21
2019-06-15T21:08:49.214Z,78.17
2019-06-15T21:11:21.011Z,78.32
2019-06-15T21:13:52.801Z,78.92
2019-06-15T21:16:26.250Z,78.90
2019-06-15T21:18:58.151Z,79.53
2019-06-15T21:21:29.945Z,81.02
2019-06-15T21:24:01.792Z,80.75
2019-06-15T21:26:33.664Z,80.48
2019-06-15T21:29:06.680Z,81.01
2019-06-15T21:31:38.607Z,82.33
2019-06-15T21:34:10.876Z,81.30
2019-06-15T21:36:42.678Z,80.66
2019-06-15T21:39:15.413Z,81.08
2019-06-15T21:41:47.181Z,80.81
2019-06-15T21:44:18.977Z,82.01
2019-06-15T21:46:50.761Z,81.89
2019-06-15T21:49:22.543Z,81.61
2019-06-15T21:51:56.444Z,81.45
2019-06-15T21:54:27.825Z,81.69
2019-06-15T21:56:59.599Z,81.90
2019-06-15T21:59:31.389Z,82.54
2019-06-15T22:02:03.166Z,82.57
2019-06-15T22:04:36.846Z,82.38
2019-06-15T22:07:08.408Z,82.61
2019-06-15T22:09:40.190Z,82.86
2019-06-15T22:12:11.969Z,82.96
2019-06-15T22:14:43.745Z,83.09
2019-06-15T22:17:16.847Z,83.20
2019-06-15T22:19:48.768Z,83.33
2019-06-15T22:22:20.544Z,83.34
2019-06-15T22:24:52.329Z,83.79
2019-06-15T22:27:24.108Z,84.11
2019-06-15T22:29:56.513Z,84.44
2019-06-15T22:32:28.448Z,84.63
2019-06-15T22:35:00.698Z,85.18
2019-06-15T22:37:32.476Z,85.29
2019-06-15T22:40:08.667Z,85.31
2019-06-15T22:42:40.444Z,86.30
2019-06-15T22:45:12.455Z,87.39
2019-06-15T22:47:46.629Z,86.92
2019-06-15T22:50:17.850Z,87.23
2019-06-15T22:52:49.630Z,86.58
2019-06-15T22:55:21.482Z,87.08
2019-06-15T22:57:53.265Z,86.52
2019-06-15T23:00:26.564Z,86.30
2019-06-15T23:02:58.401Z,87.75
2019-06-15T23:05:30.185Z,88.12
2019-06-15T23:08:01.959Z,88.48
2019-06-15T23:10:36.260Z,88.41
2019-06-15T23:13:07.228Z,89.62
2019-06-15T23:15:39.022Z,90.10
2019-06-15T23:18:10.830Z,89.81
2019-06-15T23:20:43.083Z,90.11
2019-06-15T23:23:16.171Z,91.02
2019-06-15T23:25:48.220Z,90.70
2019-06-15T23:28:20.981Z,90.45
2019-06-15T23:30:52.768Z,91.02
2019-06-15T23:33:26.622Z,89.29
2019-06-15T23:36:02.586Z,89.72
2019-06-15T23:38:34.358Z,91.38
2019-06-15T23:41:06.947Z,91.41
2019-06-15T23:43:38.891Z,91.99
2019-06-15T23:46:11.323Z,92.45
2019-06-15T23:48:43.115Z,93.84
2019-06-15T23:51:16.998Z,93.79
2019-06-15T23:53:49.165Z,94.80
2019-06-15T23:56:20.948Z,94.56
2019-06-15T23:58:52.724Z,95.12
